sensor_id;sensor_type;location;lat;lon;timestamp;pressure;altitude;pressure_sealevel;temperature;humidity
11223;BME280;5668;52.012;8.724;2024-01-15T00:01:17;98496.53;;;3.07;100.00
11223;BME280;5668;52.012;8.724;2024-01-15T00:03:44;98497.38;;;3.07;100.00
11223;BME280;5668;52.012;8.724;2024-01-15T00:06:11;98488.84;;;3.07;100.00
11223;BME280;5668;52.012;8.724;2024-01-15T00:08:39;98479.50;;;3.06;100.00
11223;BME280;5668;52.012;8.724;2024-01-15T00:11:06;98483.59;;;3.08;100.00
11223;BME280;5668;52.012;8.724;2024-01-15T00:13:33;98481.16;;;3.07;100.00
11223;BME280;5668;52.012;8.724;2024-01-15T00:16:00;98475.78;;;3.10;100.00
11223;BME280;5668;52.012;8.724;2024-01-15T00:18:29;98478.34;;;3.10;100.00
11223;BME280;5668;52.012;8.724;2024-01-15T00:20:56;98466.66;;;3.06;100.00
11223;BME280;5668;52.012;8.724;2024-01-15T00:23:23;98474.13;;;3.09;100.00
11223;BME280;5668;52.012;8.724;2024-01-15T00:25:51;98462.25;;;3.08;100.00
11223;BME280;5668;52.012;8.724;2024-01-15T00:28:18;98466.44;;;3.09;100.00
11223;BME280;5668;52.012;8.724;2024-01-15T00:30:46;98460.19;;;3.13;100.00
11223;BME280;5668;52.012;8.724;2024-01-15T00:33:13;98465.63;;;3.08;100.00
11223;BME280;5668;52.012;8.724;2024-01-15T00:35:42;98463.88;;;3.09;100.00
11223;BME280;5668;52.012;8.724;2024-01-15T00:38:09;98463.19;;;3.07;100.00
11223;BME280;5668;52.012;8.724;2024-01-15T00:40:36;98469.25;;;3.06;100.00
11223;BME280;5668;52.012;8.724;2024-01-15T00:43:04;98472.72;;;3.05;100.00
11223;BME280;5668;52.012;8.724;2024-01-15T00:45:33;98469.25;;;3.06;100.00
11223;BME280;5668;52.012;8.724;2024-01-15T00:48:00;98457.00;;;3.09;100.00
11223;BME280;5668;52.012;8.724;2024-01-15T00:50:28;98457.94;;;3.08;100.00
11223;BME280;5668;52.012;8.724;2024-01-15T00:52:56;98449.44;;;3.08;100.00
11223;BME280;5668;52.012;8.724;2024-01-15T00:55:23;98453.03;;;3.05;100.00
11223;BME280;5668;52.012;8.724;2024-01-15T00:57:51;98463.28;;;3.05;100.00
11223;BME280;5668;52.012;8.724;2024-01-15T01:00:18;98447.88;;;3.05;100.00
11223;BME280;5668;52.012;8.724;2024-01-15T01:02:45;98463.28;;;3.05;100.00
11223;BME280;5668;52.012;8.724;2024-01-15T01:05:14;98464.00;;;3.07;100.00
11223;BME280;5668;52.012;8.724;2024-01-15T01:07:41;98450.34;;;3.07;100.00
11223;BME280;5668;52.012;8.724;2024-01-15T01:10:10;98450.13;;;3.10;100.00
11223;BME280;5668;52.012;8.724;2024-01-15T01:12:39;98453.63;;;3.09;100.00
11223;BME280;5668;52.012;8.724;2024-01-15T01:15:06;98456.19;;;3.09;100.00
11223;BME280;5668;52.012;8.724;2024-01-15T01:17:35;98452.00;;;3.08;100.00
11223;BME280;5668;52.012;8.724;2024-01-15T01:20:04;98452.00;;;3.08;100.00
11223;BME280;5668;52.012;8.724;2024-01-15T01:22:34;98453.63;;;3.09;100.00
11223;BME280;5668;52.012;8.724;2024-01-15T01:25:01;98454.44;;;3.09;100.00
11223;BME280;5668;52.012;8.724;2024-01-15T01:27:30;98454.44;;;3.09;100.00
11223;BME280;5668;52.012;8.724;2024-01-15T01:29:57;98453.41;;;3.12;100.00
11223;BME280;5668;52.012;8.724;2024-01-15T01:32:25;98454.22;;;3.13;100.00
11223;BME280;5668;52.012;8.724;2024-01-15T01:34:52;98449.94;;;3.13;100.00
11223;BME280;5668;52.012;8.724;2024-01-15T01:37:19;98456.06;;;3.10;100.00
11223;BME280;5668;52.012;8.724;2024-01-15T01:39:47;98453.50;;;3.10;100.00
11223;BME280;5668;52.012;8.724;2024-01-15T01:42:14;98436.38;;;3.11;100.00
11223;BME280;5668;52.012;8.724;2024-01-15T01:44:44;98441.75;;;3.08;100.00
11223;BME280;5668;52.012;8.724;2024-01-15T01:47:11;98436.59;;;3.08;100.00
11223;BME280;5668;52.012;8.724;2024-01-15T01:49:39;98438.22;;;3.09;100.00
11223;BME280;5668;52.012;8.724;2024-01-15T01:52:06;98429.59;;;3.10;100.00
11223;BME280;5668;52.012;8.724;2024-01-15T01:54:34;98436.38;;;3.11;100.00
11223;BME280;5668;52.012;8.724;2024-01-15T01:57:03;98435.66;;;3.09;100.00
11223;BME280;5668;52.012;8.724;2024-01-15T01:59:32;98435.66;;;3.09;100.00
11223;BME280;5668;52.012;8.724;2024-01-15T02:02:03;98421.22;;;3.08;100.00
11223;BME280;5668;52.012;8.724;2024-01-15T02:04:31;98426.34;;;3.08;100.00
11223;BME280;5668;52.012;8.724;2024-01-15T02:07:00;98422.81;;;3.09;100.00
11223;BME280;5668;52.012;8.724;2024-01-15T02:09:27;98423.06;;;3.06;100.00
11223;BME280;5668;52.012;8.724;2024-01-15T02:11:55;98415.13;;;3.09;100.00
11223;BME280;5668;52.012;8.724;2024-01-15T02:14:22;98420.16;;;3.10;100.00
11223;BME280;5668;52.012;8.724;2024-01-15T02:16:50;98415.84;;;3.11;100.00
11223;BME280;5668;52.012;8.724;2024-01-15T02:19:19;98412.25;;;3.14;100.00
11223;BME280;5668;52.012;8.724;2024-01-15T02:21:46;98411.53;;;3.11;100.00
11223;BME280;5668;52.012;8.724;2024-01-15T02:24:15;98409.91;;;3.10;100.00
11223;BME280;5668;52.012;8.724;2024-01-15T02:26:42;98417.69;;;3.09;100.00
11223;BME280;5668;52.012;8.724;2024-01-15T02:29:10;98419.34;;;3.10;100.00
11223;BME280;5668;52.012;8.724;2024-01-15T02:34:05;98427.38;;;3.05;100.00
11223;BME280;5668;52.012;8.724;2024-01-15T02:36:32;98424.69;;;3.07;100.00
11223;BME280;5668;52.012;8.724;2024-01-15T02:39:00;98422.97;;;3.07;100.00
11223;BME280;5668;52.012;8.724;2024-01-15T02:41:28;98421.22;;;3.08;100.00
11223;BME280;5668;52.012;8.724;2024-01-15T02:43:56;98426.34;;;3.08;100.00
11223;BME280;5668;52.012;8.724;2024-01-15T02:46:23;98421.22;;;3.08;100.00
11223;BME280;5668;52.012;8.724;2024-01-15T02:48:50;98425.28;;;3.10;100.00
11223;BME280;5668;52.012;8.724;2024-01-15T02:51:17;98429.41;;;3.13;100.00
11223;BME280;5668;52.012;8.724;2024-01-15T02:53:45;98424.47;;;3.10;100.00
11223;BME280;5668;52.012;8.724;2024-01-15T02:56:12;98427.75;;;3.12;100.00
11223;BME280;5668;52.012;8.724;2024-01-15T02:58:41;98429.41;;;3.13;100.00
11223;BME280;5668;52.012;8.724;2024-01-15T03:01:08;98425.91;;;3.14;100.00
11223;BME280;5668;52.012;8.724;2024-01-15T03:03:35;98438.84;;;3.13;100.00
11223;BME280;5668;52.012;8.724;2024-01-15T03:06:03;98423.25;;;3.16;100.00
11223;BME280;5668;52.012;8.724;2024-01-15T03:08:30;98424.25;;;3.13;100.00
11223;BME280;5668;52.012;8.724;2024-01-15T03:10:58;98424.25;;;3.13;100.00
11223;BME280;5668;52.012;8.724;2024-01-15T03:13:25;98418.09;;;3.16;100.00
11223;BME280;5668;52.012;8.724;2024-01-15T03:15:53;98425.09;;;3.14;100.00
11223;BME280;5668;52.012;8.724;2024-01-15T03:18:20;98423.34;;;3.14;100.00
11223;BME280;5668;52.012;8.724;2024-01-15T03:20:48;98420.78;;;3.14;100.00
11223;BME280;5668;52.012;8.724;2024-01-15T03:23:15;98417.28;;;3.15;100.00
11223;BME280;5668;52.012;8.724;2024-01-15T03:25:42;98422.72;;;3.10;100.00
11223;BME280;5668;52.012;8.724;2024-01-15T03:28:10;98421.59;;;3.15;100.00
11223;BME280;5668;52.012;8.724;2024-01-15T03:30:37;98417.28;;;3.15;100.00
11223;BME280;5668;52.012;8.724;2024-01-15T03:33:06;98402.72;;;3.16;100.00
11223;BME280;5668;52.012;8.724;2024-01-15T03:35:33;98407.03;;;3.15;100.00
11223;BME280;5668;52.012;8.724;2024-01-15T03:38:00;98407.22;;;3.12;100.00
11223;BME280;5668;52.012;8.724;2024-01-15T03:40:28;98406.41;;;3.11;100.00
11223;BME280;5668;52.012;8.724;2024-01-15T03:42:55;98403.75;;;3.13;100.00
11223;BME280;5668;52.012;8.724;2024-01-15T03:45:22;98407.94;;;3.14;100.00
11223;BME280;5668;52.012;8.724;2024-01-15T03:47:49;98415.75;;;3.13;100.00
11223;BME280;5668;52.012;8.724;2024-01-15T03:50:20;98410.50;;;3.14;100.00
11223;BME280;5668;52.012;8.724;2024-01-15T03:52:48;98407.03;;;3.15;100.00
11223;BME280;5668;52.012;8.724;2024-01-15T03:55:15;98403.50;;;3.16;100.00
11223;BME280;5668;52.012;8.724;2024-01-15T03:57:42;98401.91;;;3.15;100.00
11223;BME280;5668;52.012;8.724;2024-01-15T04:02:38;98405.59;;;3.11;100.00
11223;BME280;5668;52.012;8.724;2024-01-15T04:05:06;98414.22;;;3.10;100.00
11223;BME280;5668;52.012;8.724;2024-01-15T04:07:34;98417.59;;;3.10;100.00
11223;BME280;5668;52.012;8.724;2024-01-15T04:10:02;98423.53;;;3.11;100.00
11223;BME280;5668;52.012;8.724;2024-01-15T04:12:30;98424.25;;;3.13;100.00
11223;BME280;5668;52.012;8.724;2024-01-15T04:14:57;98420.06;;;3.12;100.00
11223;BME280;5668;52.012;8.724;2024-01-15T04:17:24;98418.22;;;3.14;100.00
11223;BME280;5668;52.012;8.724;2024-01-15T04:19:51;98415.75;;;3.13;100.00
11223;BME280;5668;52.012;8.724;2024-01-15T04:22:19;98405.38;;;3.14;100.00
11223;BME280;5668;52.012;8.724;2024-01-15T04:24:47;98393.38;;;3.15;100.00
11223;BME280;5668;52.012;8.724;2024-01-15T04:27:15;98399.31;;;3.15;100.00
11223;BME280;5668;52.012;8.724;2024-01-15T04:29:42;98404.47;;;3.15;100.00
11223;BME280;5668;52.012;8.724;2024-01-15T04:32:10;98397.59;;;3.16;100.00
11223;BME280;5668;52.012;8.724;2024-01-15T04:34:37;98405.16;;;3.17;100.00
11223;BME280;5668;52.012;8.724;2024-01-15T04:37:04;98400.00;;;3.17;100.00
11223;BME280;5668;52.012;8.724;2024-01-15T04:39:32;98400.00;;;3.17;100.00
11223;BME280;5668;52.012;8.724;2024-01-15T04:42:00;98389.06;;;3.15;100.00
11223;BME280;5668;52.012;8.724;2024-01-15T04:44:28;98389.06;;;3.15;100.00
11223;BME280;5668;52.012;8.724;2024-01-15T04:46:55;98384.63;;;3.17;100.00
11223;BME280;5668;52.012;8.724;2024-01-15T04:49:22;98389.97;;;3.14;100.00
11223;BME280;5668;52.012;8.724;2024-01-15T04:51:52;98377.16;;;3.14;100.00
11223;BME280;5668;52.012;8.724;2024-01-15T04:54:19;98388.44;;;3.11;100.00
11223;BME280;5668;52.012;8.724;2024-01-15T04:56:46;98383.22;;;3.13;100.00
11223;BME280;5668;52.012;8.724;2024-01-15T04:59:15;98384.03;;;3.14;100.00
11223;BME280;5668;52.012;8.724;2024-01-15T05:01:42;98379.72;;;3.14;100.00
11223;BME280;5668;52.012;8.724;2024-01-15T05:04:09;98367.59;;;3.16;100.00
11223;BME280;5668;52.012;8.724;2024-01-15T05:06:36;98372.72;;;3.16;100.00
11223;BME280;5668;52.012;8.724;2024-01-15T05:09:04;98371.91;;;3.16;100.00
11223;BME280;5668;52.012;8.724;2024-01-15T05:11:31;98361.66;;;3.16;100.00
11223;BME280;5668;52.012;8.724;2024-01-15T05:13:58;98365.84;;;3.17;100.00
11223;BME280;5668;52.012;8.724;2024-01-15T05:16:27;98365.97;;;3.15;100.00
11223;BME280;5668;52.012;8.724;2024-01-15T05:18:54;98370.38;;;3.13;100.00
11223;BME280;5668;52.012;8.724;2024-01-15T05:21:21;98366.88;;;3.14;100.00
11223;BME280;5668;52.012;8.724;2024-01-15T05:23:48;98365.16;;;3.15;100.00
11223;BME280;5668;52.012;8.724;2024-01-15T05:26:15;98368.53;;;3.15;100.00
11223;BME280;5668;52.012;8.724;2024-01-15T05:28:43;98377.16;;;3.14;100.00
11223;BME280;5668;52.012;8.724;2024-01-15T05:31:10;98367.59;;;3.16;100.00
11223;BME280;5668;52.012;8.724;2024-01-15T05:33:39;98359.88;;;3.16;100.00
11223;BME280;5668;52.012;8.724;2024-01-15T05:36:06;98372.13;;;3.13;100.00
11223;BME280;5668;52.012;8.724;2024-01-15T05:38:33;98371.50;;;3.09;100.00
11223;BME280;5668;52.012;8.724;2024-01-15T05:41:01;98381.78;;;3.09;100.00
11223;BME280;5668;52.012;8.724;2024-01-15T05:43:28;98373.97;;;3.10;100.00
11223;BME280;5668;52.012;8.724;2024-01-15T05:45:55;98367.81;;;3.13;100.00
11223;BME280;5668;52.012;8.724;2024-01-15T05:48:22;98368.75;;;3.12;100.00
11223;BME280;5668;52.012;8.724;2024-01-15T05:50:51;98380.75;;;3.11;100.00
11223;BME280;5668;52.012;8.724;2024-01-15T05:53:18;98372.94;;;3.13;100.00
11223;BME280;5668;52.012;8.724;2024-01-15T05:55:45;98365.34;;;3.11;100.00
11223;BME280;5668;52.012;8.724;2024-01-15T05:58:12;98368.84;;;3.10;100.00
11223;BME280;5668;52.012;8.724;2024-01-15T06:00:40;98371.31;;;3.12;100.00
11223;BME280;5668;52.012;8.724;2024-01-15T06:03:07;98368.03;;;3.10;100.00
11223;BME280;5668;52.012;8.724;2024-01-15T06:05:34;98363.59;;;3.12;100.00
11223;BME280;5668;52.012;8.724;2024-01-15T06:08:03;98370.38;;;3.13;100.00
11223;BME280;5668;52.012;8.724;2024-01-15T06:10:30;98365.16;;;3.15;100.00
11223;BME280;5668;52.012;8.724;2024-01-15T06:12:57;98366.06;;;3.14;100.00
11223;BME280;5668;52.012;8.724;2024-01-15T06:15:24;98369.47;;;3.14;100.00
11223;BME280;5668;52.012;8.724;2024-01-15T06:17:52;98368.53;;;3.15;100.00
11223;BME280;5668;52.012;8.724;2024-01-15T06:20:20;98363.41;;;3.15;100.00
11223;BME280;5668;52.012;8.724;2024-01-15T06:22:47;98364.31;;;3.14;100.00
11223;BME280;5668;52.012;8.724;2024-01-15T06:25:16;98371.31;;;3.12;100.00
11223;BME280;5668;52.012;8.724;2024-01-15T06:27:43;98369.47;;;3.14;100.00
11223;BME280;5668;52.012;8.724;2024-01-15T06:30:11;98367.00;;;3.13;100.00
11223;BME280;5668;52.012;8.724;2024-01-15T06:32:39;98380.66;;;3.13;100.00
11223;BME280;5668;52.012;8.724;2024-01-15T06:35:07;98371.09;;;3.15;100.00
11223;BME280;5668;52.012;8.724;2024-01-15T06:37:36;98371.91;;;3.16;100.00
11223;BME280;5668;52.012;8.724;2024-01-15T06:40:04;98369.66;;;3.11;100.00
11223;BME280;5668;52.012;8.724;2024-01-15T06:42:34;98368.84;;;3.10;100.00
11223;BME280;5668;52.012;8.724;2024-01-15T06:45:01;98362.78;;;3.11;100.00
11223;BME280;5668;52.012;8.724;2024-01-15T06:47:29;98369.47;;;3.14;100.00
11223;BME280;5668;52.012;8.724;2024-01-15T06:49:58;98372.22;;;3.11;100.00
11223;BME280;5668;52.012;8.724;2024-01-15T06:52:25;98371.50;;;3.09;100.00
11223;BME280;5668;52.012;8.724;2024-01-15T06:54:52;98374.78;;;3.11;100.00
11223;BME280;5668;52.012;8.724;2024-01-15T06:57:20;98368.75;;;3.12;100.00
11223;BME280;5668;52.012;8.724;2024-01-15T06:59:49;98368.84;;;3.10;100.00
11223;BME280;5668;52.012;8.724;2024-01-15T07:02:16;98367.00;;;3.13;100.00
11223;BME280;5668;52.012;8.724;2024-01-15T07:04:43;98373.78;;;3.14;100.00
11223;BME280;5668;52.012;8.724;2024-01-15T07:07:11;98368.75;;;3.12;100.00
11223;BME280;5668;52.012;8.724;2024-01-15T07:09:38;98374.69;;;3.13;100.00
11223;BME280;5668;52.012;8.724;2024-01-15T07:12:05;98382.38;;;3.13;100.00
11223;BME280;5668;52.012;8.724;2024-01-15T07:14:33;98385.97;;;3.10;100.00
11223;BME280;5668;52.012;8.724;2024-01-15T07:17:01;98388.53;;;3.10;100.00
11223;BME280;5668;52.012;8.724;2024-01-15T07:19:29;98385.16;;;3.09;100.00
11223;BME280;5668;52.012;8.724;2024-01-15T07:21:56;98386.81;;;3.10;100.00
11223;BME280;5668;52.012;8.724;2024-01-15T07:24:23;98385.28;;;3.08;100.00
11223;BME280;5668;52.012;8.724;2024-01-15T07:26:50;98383.66;;;3.07;100.00
11223;BME280;5668;52.012;8.724;2024-01-15T07:29:17;98384.34;;;3.09;100.00
11223;BME280;5668;52.012;8.724;2024-01-15T07:31:49;98386.91;;;3.09;100.00
11223;BME280;5668;52.012;8.724;2024-01-15T07:34:17;98385.50;;;3.05;100.00
11223;BME280;5668;52.012;8.724;2024-01-15T07:36:45;98388.88;;;3.05;100.00
11223;BME280;5668;52.012;8.724;2024-01-15T07:39:12;98387.25;;;3.04;100.00
11223;BME280;5668;52.012;8.724;2024-01-15T07:41:40;98384.69;;;3.04;100.00
11223;BME280;5668;52.012;8.724;2024-01-15T07:44:07;98386.22;;;3.07;100.00
11223;BME280;5668;52.012;8.724;2024-01-15T07:46:34;98389.59;;;3.07;100.00
11223;BME280;5668;52.012;8.724;2024-01-15T07:49:01;98385.28;;;3.08;100.00
11223;BME280;5668;52.012;8.724;2024-01-15T07:51:30;98397.41;;;3.06;100.00
11223;BME280;5668;52.012;8.724;2024-01-15T07:53:58;98388.97;;;3.04;100.00
11223;BME280;5668;52.012;8.724;2024-01-15T07:56:25;98397.31;;;3.07;100.00
11223;BME280;5668;52.012;8.724;2024-01-15T07:58:53;98391.44;;;3.05;100.00
11223;BME280;5668;52.012;8.724;2024-01-15T08:01:20;98399.97;;;3.06;100.00
11223;BME280;5668;52.012;8.724;2024-01-15T08:03:47;98393.91;;;3.07;100.00
11223;BME280;5668;52.012;8.724;2024-01-15T08:06:15;98393.78;;;3.08;100.00
11223;BME280;5668;52.012;8.724;2024-01-15T08:08:43;98397.16;;;3.09;100.00
11223;BME280;5668;52.012;8.724;2024-01-15T08:11:11;98401.38;;;3.10;100.00
11223;BME280;5668;52.012;8.724;2024-01-15T08:13:38;98394.41;;;3.12;100.00
11223;BME280;5668;52.012;8.724;2024-01-15T08:16:06;98394.72;;;3.07;100.00
11223;BME280;5668;52.012;8.724;2024-01-15T08:18:33;98388.78;;;3.07;100.00
11223;BME280;5668;52.012;8.724;2024-01-15T08:21:00;98393.00;;;3.08;100.00
11223;BME280;5668;52.012;8.724;2024-01-15T08:23:28;98391.22;;;3.08;100.00
11223;BME280;5668;52.012;8.724;2024-01-15T08:25:58;98401.47;;;3.08;100.00
11223;BME280;5668;52.012;8.724;2024-01-15T08:28:25;98400.69;;;3.08;100.00
11223;BME280;5668;52.012;8.724;2024-01-15T08:30:52;98396.47;;;3.07;100.00
11223;BME280;5668;52.012;8.724;2024-01-15T08:33:20;98403.25;;;3.08;100.00
11223;BME280;5668;52.012;8.724;2024-01-15T08:35:47;98405.00;;;3.07;100.00
11223;BME280;5668;52.012;8.724;2024-01-15T08:38:14;98401.81;;;3.04;100.00
11223;BME280;5668;52.012;8.724;2024-01-15T08:40:41;98397.41;;;3.06;100.00
11223;BME280;5668;52.012;8.724;2024-01-15T08:43:10;98390.44;;;3.08;100.00
11223;BME280;5668;52.012;8.724;2024-01-15T08:45:38;98387.84;;;3.08;100.00
11223;BME280;5668;52.012;8.724;2024-01-15T08:48:05;98387.97;;;3.06;100.00
11223;BME280;5668;52.012;8.724;2024-01-15T08:50:33;98388.66;;;3.08;100.00
11223;BME280;5668;52.012;8.724;2024-01-15T08:53:00;98394.59;;;3.09;100.00
11223;BME280;5668;52.012;8.724;2024-01-15T08:55:27;98398.59;;;3.13;100.00
11223;BME280;5668;52.012;8.724;2024-01-15T08:57:54;98402.81;;;3.14;100.00
11223;BME280;5668;52.012;8.724;2024-01-15T09:00:23;98399.44;;;3.14;100.00
11223;BME280;5668;52.012;8.724;2024-01-15T09:02:50;98395.94;;;3.15;100.00
11223;BME280;5668;52.012;8.724;2024-01-15T09:05:17;98398.59;;;3.13;100.00
11223;BME280;5668;52.012;8.724;2024-01-15T09:07:44;98393.25;;;3.16;100.00
11223;BME280;5668;52.012;8.724;2024-01-15T09:10:13;98394.19;;;3.15;100.00
11223;BME280;5668;52.012;8.724;2024-01-15T09:12:40;98403.03;;;3.11;100.00
11223;BME280;5668;52.012;8.724;2024-01-15T09:15:08;98401.16;;;3.13;100.00
11223;BME280;5668;52.012;8.724;2024-01-15T09:17:37;98403.84;;;3.11;100.00
11223;BME280;5668;52.012;8.724;2024-01-15T09:20:06;98404.88;;;3.09;100.00
11223;BME280;5668;52.012;8.724;2024-01-15T09:22:35;98411.75;;;3.08;100.00
11223;BME280;5668;52.012;8.724;2024-01-15T09:25:02;98409.31;;;3.07;100.00
11223;BME280;5668;52.012;8.724;2024-01-15T09:27:30;98411.34;;;3.02;100.00
11223;BME280;5668;52.012;8.724;2024-01-15T09:29:58;98407.88;;;3.03;100.00
11223;BME280;5668;52.012;8.724;2024-01-15T09:32:26;98401.72;;;3.05;100.00
11223;BME280;5668;52.012;8.724;2024-01-15T09:34:54;98396.69;;;3.04;100.00
11223;BME280;5668;52.012;8.724;2024-01-15T09:37:22;98399.25;;;3.04;100.00
11223;BME280;5668;52.012;8.724;2024-01-15T09:39:49;98393.09;;;3.06;100.00
11223;BME280;5668;52.012;8.724;2024-01-15T09:42:16;98389.59;;;3.07;100.00
11223;BME280;5668;52.012;8.724;2024-01-15T09:44:45;98399.97;;;3.06;100.00
11223;BME280;5668;52.012;8.724;2024-01-15T09:47:13;98405.19;;;3.04;100.00
11223;BME280;5668;52.012;8.724;2024-01-15T09:49:42;98409.41;;;3.05;100.00
11223;BME280;5668;52.012;8.724;2024-01-15T09:52:11;98408.69;;;3.03;100.00
11223;BME280;5668;52.012;8.724;2024-01-15T09:54:39;98407.03;;;3.02;100.00
11223;BME280;5668;52.012;8.724;2024-01-15T09:57:06;98404.56;;;3.01;100.00
11223;BME280;5668;52.012;8.724;2024-01-15T09:59:34;98407.16;;;3.01;100.00
11223;BME280;5668;52.012;8.724;2024-01-15T10:02:03;98400.16;;;3.03;100.00
11223;BME280;5668;52.012;8.724;2024-01-15T10:04:31;98399.25;;;3.04;100.00
11223;BME280;5668;52.012;8.724;2024-01-15T10:07:00;98404.56;;;3.01;100.00
11223;BME280;5668;52.012;8.724;2024-01-15T10:09:29;98401.91;;;3.02;100.00
11223;BME280;5668;52.012;8.724;2024-01-15T10:11:56;98400.06;;;3.04;100.00
11223;BME280;5668;52.012;8.724;2024-01-15T10:14:23;98399.16;;;3.05;100.00
11223;BME280;5668;52.012;8.724;2024-01-15T10:16:51;98395.75;;;3.05;100.00
11223;BME280;5668;52.012;8.724;2024-01-15T10:19:18;98397.41;;;3.06;100.00
11223;BME280;5668;52.012;8.724;2024-01-15T10:21:45;98394.59;;;3.09;100.00
11223;BME280;5668;52.012;8.724;2024-01-15T10:24:13;98385.28;;;3.08;100.00
11223;BME280;5668;52.012;8.724;2024-01-15T10:26:41;98384.22;;;3.10;100.00
11223;BME280;5668;52.012;8.724;2024-01-15T10:29:08;98381.78;;;3.09;100.00
11223;BME280;5668;52.012;8.724;2024-01-15T10:31:38;98386.69;;;3.12;100.00
11223;BME280;5668;52.012;8.724;2024-01-15T10:34:11;98390.19;;;3.11;100.00
11223;BME280;5668;52.012;8.724;2024-01-15T10:36:41;98389.38;;;3.10;100.00
11223;BME280;5668;52.012;8.724;2024-01-15T10:39:08;98385.06;;;3.11;100.00
11223;BME280;5668;52.012;8.724;2024-01-15T10:41:35;98391.94;;;3.10;100.00
11223;BME280;5668;52.012;8.724;2024-01-15T10:44:04;98393.47;;;3.13;100.00
11223;BME280;5668;52.012;8.724;2024-01-15T10:46:32;98387.41;;;3.14;100.00
11223;BME280;5668;52.012;8.724;2024-01-15T10:49:00;98391.84;;;3.12;100.00
11223;BME280;5668;52.012;8.724;2024-01-15T10:51:29;98382.50;;;3.11;100.00
11223;BME280;5668;52.012;8.724;2024-01-15T10:53:57;98376.44;;;3.12;100.00
11223;BME280;5668;52.012;8.724;2024-01-15T10:56:24;98372.94;;;3.13;100.00
11223;BME280;5668;52.012;8.724;2024-01-15T10:58:53;98368.63;;;3.14;100.00
11223;BME280;5668;52.012;8.724;2024-01-15T11:01:22;98380.66;;;3.13;100.00
11223;BME280;5668;52.012;8.724;2024-01-15T11:03:50;98375.41;;;3.15;100.00
11223;BME280;5668;52.012;8.724;2024-01-15T11:06:17;98380.41;;;3.16;100.00
11223;BME280;5668;52.012;8.724;2024-01-15T11:08:46;98376.72;;;3.20;100.00
11223;BME280;5668;52.012;8.724;2024-01-15T11:11:16;98373.31;;;3.20;100.00
11223;BME280;5668;52.012;8.724;2024-01-15T11:13:45;98381.94;;;3.19;100.00
11223;BME280;5668;52.012;8.724;2024-01-15T11:16:15;98382.44;;;3.24;100.00
11223;BME280;5668;52.012;8.724;2024-01-15T11:19:02;98380.00;;;3.22;100.00
11223;BME280;5668;52.012;8.724;2024-01-15T11:21:29;98374.97;;;3.21;100.00
11223;BME280;5668;52.012;8.724;2024-01-15T11:23:58;98372.41;;;3.21;100.00
11223;BME280;5668;52.012;8.724;2024-01-15T11:26:34;98384.22;;;3.23;100.00
11223;BME280;5668;52.012;8.724;2024-01-15T11:29:03;98381.66;;;3.23;100.00
11223;BME280;5668;52.012;8.724;2024-01-15T11:31:59;98385.00;;;3.24;100.00
11223;BME280;5668;52.012;8.724;2024-01-15T11:34:59;98368.53;;;3.15;100.00
11223;BME280;5668;52.012;8.724;2024-01-15T11:37:29;98369.22;;;3.17;100.00
11223;BME280;5668;52.012;8.724;2024-01-15T11:40:00;98377.84;;;3.16;100.00
11223;BME280;5668;52.012;8.724;2024-01-15T11:42:30;98375.06;;;3.19;100.00
11223;BME280;5668;52.012;8.724;2024-01-15T11:44:57;98377.44;;;3.22;100.00
11223;BME280;5668;52.012;8.724;2024-01-15T11:47:52;98377.19;;;3.25;100.00
11223;BME280;5668;52.012;8.724;2024-01-15T11:50:31;98372.88;;;3.26;100.00
11223;BME280;5668;52.012;8.724;2024-01-15T11:53:01;98374.44;;;3.28;100.00
11223;BME280;5668;52.012;8.724;2024-01-15T11:55:33;98370.94;;;3.29;100.00
11223;BME280;5668;52.012;8.724;2024-01-15T11:58:01;98375.16;;;3.30;100.00
11223;BME280;5668;52.012;8.724;2024-01-15T12:00:29;98368.38;;;3.29;100.00
11223;BME280;5668;52.012;8.724;2024-01-15T12:02:59;98369.88;;;3.32;100.00
11223;BME280;5668;52.012;8.724;2024-01-15T12:05:29;98363.91;;;3.31;100.00
11223;BME280;5668;52.012;8.724;2024-01-15T12:07:56;98367.53;;;3.29;100.00
11223;BME280;5668;52.012;8.724;2024-01-15T12:10:23;98371.84;;;3.28;100.00
11223;BME280;5668;52.012;8.724;2024-01-15T12:12:58;98374.09;;;3.33;100.00
11223;BME280;5668;52.012;8.724;2024-01-15T12:15:26;98366.50;;;3.31;100.00
11223;BME280;5668;52.012;8.724;2024-01-15T12:17:55;98373.50;;;3.29;100.00
11223;BME280;5668;52.012;8.724;2024-01-15T12:20:24;98376.75;;;3.31;100.00
11223;BME280;5668;52.012;8.724;2024-01-15T12:22:53;98372.44;;;3.32;100.00
11223;BME280;5668;52.012;8.724;2024-01-15T12:25:21;98372.34;;;3.33;100.00
11223;BME280;5668;52.012;8.724;2024-01-15T12:27:48;98373.25;;;3.32;100.00
11223;BME280;5668;52.012;8.724;2024-01-15T12:30:16;98380.28;;;3.30;100.00
11223;BME280;5668;52.012;8.724;2024-01-15T12:32:45;98378.84;;;3.26;100.00
11223;BME280;5668;52.012;8.724;2024-01-15T12:35:13;98377.00;;;3.28;100.00
11223;BME280;5668;52.012;8.724;2024-01-15T12:37:41;98378.63;;;3.29;100.00
11223;BME280;5668;52.012;8.724;2024-01-15T12:40:12;98371.25;;;3.25;100.00
11223;BME280;5668;52.012;8.724;2024-01-15T12:42:41;98373.22;;;3.21;100.00
11223;BME280;5668;52.012;8.724;2024-01-15T12:45:10;98372.06;;;3.25;100.00
11223;BME280;5668;52.012;8.724;2024-01-15T12:47:38;98372.06;;;3.25;100.00
11223;BME280;5668;52.012;8.724;2024-01-15T12:50:08;98372.16;;;3.24;100.00
11223;BME280;5668;52.012;8.724;2024-01-15T12:52:36;98375.34;;;3.27;100.00
11223;BME280;5668;52.012;8.724;2024-01-15T12:55:05;98377.09;;;3.27;100.00
11223;BME280;5668;52.012;8.724;2024-01-15T12:57:34;98371.63;;;3.31;100.00
11223;BME280;5668;52.012;8.724;2024-01-15T13:00:02;98367.31;;;3.32;100.00
11223;BME280;5668;52.012;8.724;2024-01-15T13:02:32;98366.50;;;3.31;100.00
11223;BME280;5668;52.012;8.724;2024-01-15T13:05:00;98367.22;;;3.33;100.00
11223;BME280;5668;52.012;8.724;2024-01-15T13:07:27;98363.00;;;3.32;100.00
11223;BME280;5668;52.012;8.724;2024-01-15T13:09:55;98368.22;;;3.31;100.00
11223;BME280;5668;52.012;8.724;2024-01-15T13:12:22;98371.63;;;3.31;100.00
11223;BME280;5668;52.012;8.724;2024-01-15T13:14:51;98363.00;;;3.32;100.00
11223;BME280;5668;52.012;8.724;2024-01-15T13:17:18;98358.69;;;3.33;100.00
11223;BME280;5668;52.012;8.724;2024-01-15T13:19:46;98358.56;;;3.34;100.00